Oskaloosa, IA (52577)

4:24 PM CDT on April 30, 2017 (GMT -0500)
Downtown Oskaloosa | | Change Station

Elev 846 ft 41.29 °N, 92.65 °W | Updated 25 seconds ago

Rain
Rain
47.1 °F
Feels Like 43 °F
N
9.0
Wind Variable Wind from West
Gusts 24.0 mph

Today
High -- | Low -- °F
--% Chance of Precip.
Yesterday
High -- | Low -- °F
Precip. -- in
Pressure 29.53 in
Visibility 4.0 miles
Clouds Overcast 700 ft
Windchill 43 °F
Dew Point 46 °F
Humidity 94%
Rainfall 0.18 in
Snow Depth Not available.
6:08 AM 8:07 PM
Waxing Crescent, 26% visible
METAR KOOA 302055Z AUTO 08021G24KT 4SM -RA OVC007 08/07 A2953 RMK AO2 P0001 60005 T00760070
Pressure 29.53 in
Visibility 4.0 miles
Clouds Overcast 700 ft
Windchill 43 °F
Dew Point 46 °F
Humidity 94%
Rainfall 0.18 in
Snow Depth Not available.
6:08 AM 8:07 PM
Waxing Crescent, 26% visible
METAR KOOA 302055Z AUTO 08021G24KT 4SM -RA OVC007 08/07 A2953 RMK AO2 P0001 60005 T00760070

Get Severe Weather Alerts

Thanks for signing up!

Be on the lookout for a verification email in your inbox.

You'll start receiving the daily forecast at 8 AM.

×

10-Day Weather Forecast

Almanac

Astronomy

Apr. 30, 2017 Rise Set
Actual Time
Civil Twilight
Nautical Twilight
Astronomical Twilight
Moon
Length of Visible Light
Length of Day
Tomorrow will be .
, % of the Moon is Illuminated

Today's Extremes

State Highs State Lows

Community

WunderPhotos

WunderBlog® & News

Nearby

Air Quality

  Air Quality AQ Index Pollutant
Not available.

Snow Depth

Station Depth Elevation

Earthquake Activity

City Distance Mag. Time & Date
Minimum magnitude displayed is 2.5.

Coastal Water Temperatures

Place Temperature

Stations

Nearby Weather Stations

Station Location Temp. Windchill Dew Point Humidity Wind Precip. Elev Updated Type
                   

Watches & Warnings

There are currently no watches in effect.